sensor_id;sensor_type;location;lat;lon;timestamp;P1;durP1;ratioP1;P2;durP2;ratioP2
17449;SDS011;8842;51.244;7.102;2023-06-26T00:00:01;10.58;;;10.03;;
17449;SDS011;8842;51.244;7.102;2023-06-26T00:05:07;10.40;;;9.90;;
17449;SDS011;8842;51.244;7.102;2023-06-26T00:10:11;10.03;;;9.53;;
17449;SDS011;8842;51.244;7.102;2023-06-26T00:15:16;10.20;;;9.70;;
17449;SDS011;8842;51.244;7.102;2023-06-26T00:20:27;10.00;;;9.50;;
17449;SDS011;8842;51.244;7.102;2023-06-26T00:25:31;9.80;;;9.30;;
17449;SDS011;8842;51.244;7.102;2023-06-26T00:30:43;9.90;;;9.40;;
17449;SDS011;8842;51.244;7.102;2023-06-26T00:35:47;9.80;;;9.20;;
17449;SDS011;8842;51.244;7.102;2023-06-26T00:40:59;9.35;;;8.85;;
17449;SDS011;8842;51.244;7.102;2023-06-26T00:46:03;9.90;;;9.40;;
17449;SDS011;8842;51.244;7.102;2023-06-26T00:51:15;10.40;;;9.85;;
17449;SDS011;8842;51.244;7.102;2023-06-26T00:56:20;10.10;;;9.60;;
17449;SDS011;8842;51.244;7.102;2023-06-26T01:01:38;10.03;;;9.53;;
17449;SDS011;8842;51.244;7.102;2023-06-26T01:06:42;9.83;;;9.33;;
17449;SDS011;8842;51.244;7.102;2023-06-26T01:11:55;9.90;;;9.40;;
17449;SDS011;8842;51.244;7.102;2023-06-26T01:16:59;9.95;;;9.45;;
17449;SDS011;8842;51.244;7.102;2023-06-26T01:22:14;9.60;;;9.10;;
17449;SDS011;8842;51.244;7.102;2023-06-26T01:27:21;10.05;;;9.48;;
17449;SDS011;8842;51.244;7.102;2023-06-26T01:32:33;10.58;;;9.98;;
17449;SDS011;8842;51.244;7.102;2023-06-26T01:37:37;11.03;;;10.25;;
17449;SDS011;8842;51.244;7.102;2023-06-26T01:42:49;10.48;;;9.93;;
17449;SDS011;8842;51.244;7.102;2023-06-26T01:47:54;10.32;;;9.83;;
17449;SDS011;8842;51.244;7.102;2023-06-26T01:53:07;10.13;;;9.53;;
17449;SDS011;8842;51.244;7.102;2023-06-26T01:58:14;10.32;;;9.75;;
17449;SDS011;8842;51.244;7.102;2023-06-26T02:03:26;10.18;;;9.68;;
17449;SDS011;8842;51.244;7.102;2023-06-26T02:08:30;10.00;;;9.50;;
17449;SDS011;8842;51.244;7.102;2023-06-26T02:13:42;10.95;;;10.28;;
17449;SDS011;8842;51.244;7.102;2023-06-26T02:18:46;10.03;;;9.50;;
17449;SDS011;8842;51.244;7.102;2023-06-26T02:23:59;10.60;;;9.90;;
17449;SDS011;8842;51.244;7.102;2023-06-26T02:29:03;10.10;;;9.60;;
17449;SDS011;8842;51.244;7.102;2023-06-26T02:34:15;9.88;;;9.38;;
17449;SDS011;8842;51.244;7.102;2023-06-26T02:39:19;9.63;;;9.13;;
17449;SDS011;8842;51.244;7.102;2023-06-26T02:44:23;10.40;;;9.83;;
17449;SDS011;8842;51.244;7.102;2023-06-26T02:49:27;10.48;;;9.95;;
17449;SDS011;8842;51.244;7.102;2023-06-26T02:54:31;10.03;;;9.53;;
17449;SDS011;8842;51.244;7.102;2023-06-26T02:59:35;10.20;;;9.70;;
17449;SDS011;8842;51.244;7.102;2023-06-26T03:04:40;9.80;;;9.30;;
17449;SDS011;8842;51.244;7.102;2023-06-26T03:09:51;10.25;;;9.75;;
17449;SDS011;8842;51.244;7.102;2023-06-26T03:14:55;10.50;;;9.90;;
17449;SDS011;8842;51.244;7.102;2023-06-26T03:19:59;10.60;;;10.00;;
17449;SDS011;8842;51.244;7.102;2023-06-26T03:25:04;10.30;;;9.80;;
17449;SDS011;8842;51.244;7.102;2023-06-26T03:30:16;10.03;;;9.53;;
17449;SDS011;8842;51.244;7.102;2023-06-26T03:35:20;10.87;;;10.27;;
17449;SDS011;8842;51.244;7.102;2023-06-26T03:40:25;11.00;;;10.40;;
17449;SDS011;8842;51.244;7.102;2023-06-26T03:45:29;10.60;;;10.10;;
17449;SDS011;8842;51.244;7.102;2023-06-26T03:50:40;11.20;;;10.60;;
17449;SDS011;8842;51.244;7.102;2023-06-26T03:55:44;11.73;;;11.03;;
17449;SDS011;8842;51.244;7.102;2023-06-26T04:05:59;11.10;;;10.50;;
17449;SDS011;8842;51.244;7.102;2023-06-26T04:11:03;11.68;;;10.98;;
17449;SDS011;8842;51.244;7.102;2023-06-26T04:16:15;11.53;;;10.83;;
17449;SDS011;8842;51.244;7.102;2023-06-26T04:21:19;11.48;;;10.88;;
17449;SDS011;8842;51.244;7.102;2023-06-26T04:26:34;11.30;;;10.70;;
17449;SDS011;8842;51.244;7.102;2023-06-26T04:31:38;11.60;;;11.00;;
17449;SDS011;8842;51.244;7.102;2023-06-26T04:36:50;11.90;;;11.10;;
17449;SDS011;8842;51.244;7.102;2023-06-26T04:41:54;11.45;;;10.78;;
17449;SDS011;8842;51.244;7.102;2023-06-26T04:47:06;11.45;;;10.85;;
17449;SDS011;8842;51.244;7.102;2023-06-26T04:52:10;12.28;;;11.57;;
17449;SDS011;8842;51.244;7.102;2023-06-26T04:57:24;12.53;;;11.83;;
17449;SDS011;8842;51.244;7.102;2023-06-26T05:02:27;12.10;;;11.48;;
17449;SDS011;8842;51.244;7.102;2023-06-26T05:07:32;12.80;;;12.10;;
17449;SDS011;8842;51.244;7.102;2023-06-26T05:12:36;13.00;;;12.30;;
17449;SDS011;8842;51.244;7.102;2023-06-26T05:17:40;13.65;;;12.95;;
17449;SDS011;8842;51.244;7.102;2023-06-26T05:22:44;13.17;;;12.47;;
17449;SDS011;8842;51.244;7.102;2023-06-26T05:27:58;13.32;;;12.63;;
17449;SDS011;8842;51.244;7.102;2023-06-26T05:33:11;12.60;;;11.95;;
17449;SDS011;8842;51.244;7.102;2023-06-26T05:38:17;13.50;;;12.80;;
17449;SDS011;8842;51.244;7.102;2023-06-26T05:43:44;13.20;;;12.50;;
17449;SDS011;8842;51.244;7.102;2023-06-26T05:48:48;13.62;;;12.93;;
17449;SDS011;8842;51.244;7.102;2023-06-26T05:54:03;13.72;;;13.03;;
17449;SDS011;8842;51.244;7.102;2023-06-26T06:04:19;14.00;;;13.25;;
17449;SDS011;8842;51.244;7.102;2023-06-26T06:09:23;13.65;;;12.95;;
17449;SDS011;8842;51.244;7.102;2023-06-26T06:14:37;13.95;;;13.20;;
17449;SDS011;8842;51.244;7.102;2023-06-26T06:19:41;14.23;;;13.43;;
17449;SDS011;8842;51.244;7.102;2023-06-26T06:24:45;13.72;;;13.03;;
17449;SDS011;8842;51.244;7.102;2023-06-26T06:29:57;13.65;;;12.95;;
17449;SDS011;8842;51.244;7.102;2023-06-26T06:35:01;12.80;;;12.10;;
17449;SDS011;8842;51.244;7.102;2023-06-26T06:40:13;14.50;;;13.70;;
17449;SDS011;8842;51.244;7.102;2023-06-26T06:45:17;14.15;;;13.45;;
17449;SDS011;8842;51.244;7.102;2023-06-26T06:50:21;13.80;;;13.10;;
17449;SDS011;8842;51.244;7.102;2023-06-26T06:55:33;14.25;;;13.45;;
17449;SDS011;8842;51.244;7.102;2023-06-26T07:00:37;15.18;;;14.35;;
17449;SDS011;8842;51.244;7.102;2023-06-26T07:05:41;15.23;;;14.33;;
17449;SDS011;8842;51.244;7.102;2023-06-26T07:10:53;14.47;;;13.67;;
17449;SDS011;8842;51.244;7.102;2023-06-26T07:15:59;14.50;;;13.70;;
17449;SDS011;8842;51.244;7.102;2023-06-26T07:21:11;14.95;;;14.15;;
17449;SDS011;8842;51.244;7.102;2023-06-26T07:26:15;15.20;;;14.30;;
17449;SDS011;8842;51.244;7.102;2023-06-26T07:31:19;14.40;;;13.62;;
17449;SDS011;8842;51.244;7.102;2023-06-26T07:36:23;14.00;;;13.30;;
17449;SDS011;8842;51.244;7.102;2023-06-26T07:41:35;14.65;;;13.80;;
17449;SDS011;8842;51.244;7.102;2023-06-26T07:46:39;13.78;;;12.98;;
17449;SDS011;8842;51.244;7.102;2023-06-26T07:51:50;14.03;;;13.32;;
17449;SDS011;8842;51.244;7.102;2023-06-26T07:56:55;14.55;;;13.58;;
17449;SDS011;8842;51.244;7.102;2023-06-26T08:02:00;14.20;;;13.43;;
17449;SDS011;8842;51.244;7.102;2023-06-26T08:07:12;14.75;;;13.85;;
17449;SDS011;8842;51.244;7.102;2023-06-26T08:12:16;14.13;;;13.32;;
17449;SDS011;8842;51.244;7.102;2023-06-26T08:17:20;14.70;;;13.83;;
17449;SDS011;8842;51.244;7.102;2023-06-26T08:22:24;14.00;;;13.30;;
17449;SDS011;8842;51.244;7.102;2023-06-26T08:27:36;13.83;;;13.13;;
17449;SDS011;8842;51.244;7.102;2023-06-26T08:32:40;14.50;;;13.60;;
17449;SDS011;8842;51.244;7.102;2023-06-26T08:37:52;15.00;;;14.20;;
17449;SDS011;8842;51.244;7.102;2023-06-26T08:42:57;14.65;;;13.85;;
17449;SDS011;8842;51.244;7.102;2023-06-26T08:48:10;13.40;;;12.70;;
17449;SDS011;8842;51.244;7.102;2023-06-26T08:53:17;13.22;;;12.53;;
17449;SDS011;8842;51.244;7.102;2023-06-26T08:58:29;13.35;;;12.40;;
17449;SDS011;8842;51.244;7.102;2023-06-26T09:03:33;14.47;;;13.60;;
17449;SDS011;8842;51.244;7.102;2023-06-26T09:08:45;15.10;;;14.30;;
17449;SDS011;8842;51.244;7.102;2023-06-26T09:13:49;15.20;;;14.20;;
17449;SDS011;8842;51.244;7.102;2023-06-26T09:19:01;13.80;;;13.10;;
17449;SDS011;8842;51.244;7.102;2023-06-26T09:29:17;14.63;;;13.83;;
17449;SDS011;8842;51.244;7.102;2023-06-26T09:39:35;12.10;;;11.40;;
17449;SDS011;8842;51.244;7.102;2023-06-26T09:44:43;11.97;;;11.28;;
17449;SDS011;8842;51.244;7.102;2023-06-26T09:49:48;13.78;;;13.08;;
17449;SDS011;8842;51.244;7.102;2023-06-26T09:55:08;14.93;;;13.72;;
17449;SDS011;8842;51.244;7.102;2023-06-26T10:00:14;13.93;;;13.13;;
17449;SDS011;8842;51.244;7.102;2023-06-26T10:05:27;14.10;;;13.30;;
17449;SDS011;8842;51.244;7.102;2023-06-26T10:10:31;12.70;;;12.00;;
17449;SDS011;8842;51.244;7.102;2023-06-26T10:15:43;12.65;;;11.97;;
17449;SDS011;8842;51.244;7.102;2023-06-26T10:20:49;13.15;;;12.45;;
17449;SDS011;8842;51.244;7.102;2023-06-26T10:25:55;13.75;;;13.05;;
17449;SDS011;8842;51.244;7.102;2023-06-26T10:31:09;14.87;;;13.98;;
17449;SDS011;8842;51.244;7.102;2023-06-26T10:36:15;14.55;;;13.50;;
17449;SDS011;8842;51.244;7.102;2023-06-26T10:41:21;12.85;;;12.15;;
17449;SDS011;8842;51.244;7.102;2023-06-26T10:46:33;13.35;;;12.65;;
17449;SDS011;8842;51.244;7.102;2023-06-26T10:51:39;13.53;;;12.82;;
17449;SDS011;8842;51.244;7.102;2023-06-26T10:56:59;14.40;;;13.60;;
17449;SDS011;8842;51.244;7.102;2023-06-26T11:02:05;13.95;;;13.25;;
17449;SDS011;8842;51.244;7.102;2023-06-26T11:12:38;13.15;;;12.45;;
17449;SDS011;8842;51.244;7.102;2023-06-26T11:17:44;13.60;;;12.90;;
17449;SDS011;8842;51.244;7.102;2023-06-26T11:22:49;14.10;;;13.30;;
17449;SDS011;8842;51.244;7.102;2023-06-26T11:28:03;12.78;;;12.07;;
17449;SDS011;8842;51.244;7.102;2023-06-26T11:33:08;13.10;;;12.40;;
17449;SDS011;8842;51.244;7.102;2023-06-26T11:38:20;13.75;;;12.98;;
17449;SDS011;8842;51.244;7.102;2023-06-26T11:43:24;12.90;;;12.20;;
17449;SDS011;8842;51.244;7.102;2023-06-26T11:48:37;12.25;;;11.63;;
17449;SDS011;8842;51.244;7.102;2023-06-26T11:53:42;12.20;;;11.60;;
17449;SDS011;8842;51.244;7.102;2023-06-26T11:58:57;13.78;;;13.08;;
17449;SDS011;8842;51.244;7.102;2023-06-26T12:04:04;14.10;;;13.35;;
17449;SDS011;8842;51.244;7.102;2023-06-26T12:09:09;13.10;;;12.40;;
17449;SDS011;8842;51.244;7.102;2023-06-26T12:14:14;12.98;;;12.28;;
17449;SDS011;8842;51.244;7.102;2023-06-26T12:19:24;12.50;;;11.80;;
17449;SDS011;8842;51.244;7.102;2023-06-26T12:24:36;12.70;;;12.00;;
17449;SDS011;8842;51.244;7.102;2023-06-26T12:29:46;13.55;;;12.85;;
17449;SDS011;8842;51.244;7.102;2023-06-26T12:34:57;14.10;;;13.13;;
17449;SDS011;8842;51.244;7.102;2023-06-26T12:40:01;14.00;;;13.30;;
17449;SDS011;8842;51.244;7.102;2023-06-26T12:45:11;13.70;;;13.00;;
17449;SDS011;8842;51.244;7.102;2023-06-26T12:55:27;13.35;;;12.65;;
17449;SDS011;8842;51.244;7.102;2023-06-26T13:05:42;13.50;;;12.70;;
17449;SDS011;8842;51.244;7.102;2023-06-26T13:10:47;13.43;;;12.73;;
17449;SDS011;8842;51.244;7.102;2023-06-26T13:15:58;12.58;;;11.88;;
17449;SDS011;8842;51.244;7.102;2023-06-26T13:21:03;13.13;;;12.43;;
17449;SDS011;8842;51.244;7.102;2023-06-26T13:26:07;12.78;;;12.07;;
17449;SDS011;8842;51.244;7.102;2023-06-26T13:31:11;13.10;;;12.40;;
17449;SDS011;8842;51.244;7.102;2023-06-26T13:36:15;13.15;;;12.45;;
17449;SDS011;8842;51.244;7.102;2023-06-26T13:41:19;13.50;;;12.80;;
17449;SDS011;8842;51.244;7.102;2023-06-26T13:46:31;13.10;;;12.40;;
17449;SDS011;8842;51.244;7.102;2023-06-26T13:51:35;13.30;;;12.60;;
17449;SDS011;8842;51.244;7.102;2023-06-26T13:56:47;13.50;;;12.80;;
17449;SDS011;8842;51.244;7.102;2023-06-26T14:01:51;12.75;;;12.05;;
17449;SDS011;8842;51.244;7.102;2023-06-26T14:06:55;13.05;;;12.35;;
17449;SDS011;8842;51.244;7.102;2023-06-26T14:12:07;12.07;;;11.48;;
17449;SDS011;8842;51.244;7.102;2023-06-26T14:17:12;12.85;;;12.05;;
17449;SDS011;8842;51.244;7.102;2023-06-26T14:22:26;11.97;;;11.38;;
17449;SDS011;8842;51.244;7.102;2023-06-26T14:27:30;11.70;;;11.10;;
17449;SDS011;8842;51.244;7.102;2023-06-26T14:32:34;12.65;;;11.95;;
17449;SDS011;8842;51.244;7.102;2023-06-26T14:37:47;12.58;;;11.88;;
17449;SDS011;8842;51.244;7.102;2023-06-26T14:42:51;12.70;;;12.00;;
17449;SDS011;8842;51.244;7.102;2023-06-26T14:48:03;12.75;;;12.05;;
17449;SDS011;8842;51.244;7.102;2023-06-26T14:53:07;13.50;;;12.80;;
17449;SDS011;8842;51.244;7.102;2023-06-26T14:58:12;17.87;;;12.60;;
17449;SDS011;8842;51.244;7.102;2023-06-26T15:03:23;13.03;;;12.33;;
17449;SDS011;8842;51.244;7.102;2023-06-26T15:08:27;13.10;;;12.40;;
17449;SDS011;8842;51.244;7.102;2023-06-26T15:13:42;12.70;;;12.00;;
17449;SDS011;8842;51.244;7.102;2023-06-26T15:18:46;12.28;;;11.68;;
17449;SDS011;8842;51.244;7.102;2023-06-26T15:23:57;13.28;;;12.58;;
17449;SDS011;8842;51.244;7.102;2023-06-26T15:29:02;12.40;;;11.80;;
17449;SDS011;8842;51.244;7.102;2023-06-26T15:34:13;12.68;;;11.97;;
17449;SDS011;8842;51.244;7.102;2023-06-26T15:39:17;11.50;;;10.90;;
17449;SDS011;8842;51.244;7.102;2023-06-26T15:44:30;12.43;;;11.75;;
17449;SDS011;8842;51.244;7.102;2023-06-26T15:54:46;12.75;;;12.05;;
17449;SDS011;8842;51.244;7.102;2023-06-26T15:59:50;12.40;;;11.70;;
17449;SDS011;8842;51.244;7.102;2023-06-26T16:05:02;12.60;;;11.90;;
17449;SDS011;8842;51.244;7.102;2023-06-26T16:10:07;13.05;;;12.35;;
17449;SDS011;8842;51.244;7.102;2023-06-26T16:15:20;12.40;;;11.75;;
17449;SDS011;8842;51.244;7.102;2023-06-26T16:20:24;13.25;;;12.55;;
17449;SDS011;8842;51.244;7.102;2023-06-26T16:25:28;12.70;;;12.00;;
17449;SDS011;8842;51.244;7.102;2023-06-26T16:30:39;12.58;;;11.90;;
17449;SDS011;8842;51.244;7.102;2023-06-26T16:35:43;11.78;;;11.18;;
17449;SDS011;8842;51.244;7.102;2023-06-26T16:45:58;12.37;;;11.78;;
17449;SDS011;8842;51.244;7.102;2023-06-26T16:51:05;12.15;;;11.55;;
17449;SDS011;8842;51.244;7.102;2023-06-26T16:56:09;12.45;;;11.85;;
17449;SDS011;8842;51.244;7.102;2023-06-26T17:01:20;11.43;;;10.82;;
17449;SDS011;8842;51.244;7.102;2023-06-26T17:06:24;12.65;;;11.95;;
17449;SDS011;8842;51.244;7.102;2023-06-26T17:11:36;12.60;;;11.90;;
17449;SDS011;8842;51.244;7.102;2023-06-26T17:16:40;12.28;;;11.68;;
17449;SDS011;8842;51.244;7.102;2023-06-26T17:21:52;12.10;;;11.50;;
17449;SDS011;8842;51.244;7.102;2023-06-26T17:27:06;12.78;;;12.07;;
17449;SDS011;8842;51.244;7.102;2023-06-26T17:32:18;12.47;;;11.87;;
17449;SDS011;8842;51.244;7.102;2023-06-26T17:37:22;12.10;;;11.50;;
17449;SDS011;8842;51.244;7.102;2023-06-26T17:42:34;12.10;;;11.50;;
17449;SDS011;8842;51.244;7.102;2023-06-26T17:47:40;12.33;;;11.73;;
17449;SDS011;8842;51.244;7.102;2023-06-26T17:52:52;11.70;;;11.10;;
17449;SDS011;8842;51.244;7.102;2023-06-26T17:57:56;11.47;;;10.87;;
17449;SDS011;8842;51.244;7.102;2023-06-26T18:03:08;11.70;;;11.10;;
17449;SDS011;8842;51.244;7.102;2023-06-26T18:08:12;11.83;;;11.22;;
17449;SDS011;8842;51.244;7.102;2023-06-26T18:13:24;11.20;;;10.60;;
17449;SDS011;8842;51.244;7.102;2023-06-26T18:18:28;11.95;;;11.10;;
17449;SDS011;8842;51.244;7.102;2023-06-26T18:23:39;11.50;;;10.90;;
17449;SDS011;8842;51.244;7.102;2023-06-26T18:28:43;10.50;;;10.00;;
17449;SDS011;8842;51.244;7.102;2023-06-26T18:33:55;12.00;;;11.40;;
17449;SDS011;8842;51.244;7.102;2023-06-26T18:39:00;12.00;;;11.30;;
17449;SDS011;8842;51.244;7.102;2023-06-26T18:44:13;11.90;;;11.30;;
17449;SDS011;8842;51.244;7.102;2023-06-26T18:49:17;12.37;;;11.67;;
17449;SDS011;8842;51.244;7.102;2023-06-26T18:54:28;12.10;;;11.50;;
17449;SDS011;8842;51.244;7.102;2023-06-26T18:59:32;12.20;;;11.60;;
17449;SDS011;8842;51.244;7.102;2023-06-26T19:04:44;11.90;;;11.30;;
17449;SDS011;8842;51.244;7.102;2023-06-26T19:09:48;12.20;;;11.60;;
17449;SDS011;8842;51.244;7.102;2023-06-26T19:15:00;11.50;;;10.90;;
17449;SDS011;8842;51.244;7.102;2023-06-26T19:20:05;11.50;;;10.90;;
17449;SDS011;8842;51.244;7.102;2023-06-26T19:25:10;11.40;;;10.80;;
17449;SDS011;8842;51.244;7.102;2023-06-26T19:30:21;11.30;;;10.70;;
17449;SDS011;8842;51.244;7.102;2023-06-26T19:35:26;11.70;;;11.10;;
17449;SDS011;8842;51.244;7.102;2023-06-26T19:40:37;11.40;;;10.80;;
17449;SDS011;8842;51.244;7.102;2023-06-26T19:45:41;11.40;;;10.80;;
17449;SDS011;8842;51.244;7.102;2023-06-26T19:50:53;11.90;;;11.30;;
17449;SDS011;8842;51.244;7.102;2023-06-26T19:55:57;11.57;;;10.97;;
17449;SDS011;8842;51.244;7.102;2023-06-26T20:01:09;11.53;;;10.93;;
17449;SDS011;8842;51.244;7.102;2023-06-26T20:06:13;11.40;;;10.80;;
17449;SDS011;8842;51.244;7.102;2023-06-26T20:11:25;11.40;;;10.80;;
17449;SDS011;8842;51.244;7.102;2023-06-26T20:16:29;12.00;;;11.30;;
17449;SDS011;8842;51.244;7.102;2023-06-26T20:21:40;11.60;;;11.00;;
17449;SDS011;8842;51.244;7.102;2023-06-26T20:26:44;11.40;;;10.80;;
17449;SDS011;8842;51.244;7.102;2023-06-26T20:31:56;11.60;;;11.00;;
17449;SDS011;8842;51.244;7.102;2023-06-26T20:37:00;11.40;;;10.80;;
17449;SDS011;8842;51.244;7.102;2023-06-26T20:42:15;11.23;;;10.63;;
17449;SDS011;8842;51.244;7.102;2023-06-26T20:52:32;11.37;;;10.77;;
17449;SDS011;8842;51.244;7.102;2023-06-26T20:57:37;11.20;;;10.60;;
17449;SDS011;8842;51.244;7.102;2023-06-26T21:02:49;11.20;;;10.60;;
17449;SDS011;8842;51.244;7.102;2023-06-26T21:13:04;12.17;;;11.47;;
17449;SDS011;8842;51.244;7.102;2023-06-26T21:23:18;11.20;;;10.60;;
17449;SDS011;8842;51.244;7.102;2023-06-26T21:28:23;11.00;;;10.40;;
17449;SDS011;8842;51.244;7.102;2023-06-26T21:33:37;11.10;;;10.50;;
17449;SDS011;8842;51.244;7.102;2023-06-26T21:38:43;10.90;;;10.30;;
17449;SDS011;8842;51.244;7.102;2023-06-26T21:43:55;11.23;;;10.63;;
17449;SDS011;8842;51.244;7.102;2023-06-26T21:48:59;11.33;;;10.73;;
17449;SDS011;8842;51.244;7.102;2023-06-26T21:54:10;11.10;;;10.50;;
17449;SDS011;8842;51.244;7.102;2023-06-26T21:59:14;11.47;;;10.87;;
17449;SDS011;8842;51.244;7.102;2023-06-26T22:04:29;10.90;;;10.30;;
17449;SDS011;8842;51.244;7.102;2023-06-26T22:09:33;10.90;;;10.30;;
17449;SDS011;8842;51.244;7.102;2023-06-26T22:14:37;11.30;;;10.70;;
17449;SDS011;8842;51.244;7.102;2023-06-26T22:19:48;10.83;;;10.23;;
17449;SDS011;8842;51.244;7.102;2023-06-26T22:24:54;10.97;;;10.37;;
17449;SDS011;8842;51.244;7.102;2023-06-26T22:30:06;11.50;;;10.90;;
17449;SDS011;8842;51.244;7.102;2023-06-26T22:35:12;11.03;;;10.43;;
17449;SDS011;8842;51.244;7.102;2023-06-26T22:40:24;11.00;;;10.40;;
17449;SDS011;8842;51.244;7.102;2023-06-26T22:45:35;11.00;;;10.40;;
17449;SDS011;8842;51.244;7.102;2023-06-26T22:50:39;11.00;;;10.40;;
17449;SDS011;8842;51.244;7.102;2023-06-26T22:55:49;11.00;;;10.40;;
17449;SDS011;8842;51.244;7.102;2023-06-26T23:01:19;10.90;;;10.30;;
17449;SDS011;8842;51.244;7.102;2023-06-26T23:06:23;10.63;;;10.13;;
17449;SDS011;8842;51.244;7.102;2023-06-26T23:11:35;10.90;;;10.30;;
17449;SDS011;8842;51.244;7.102;2023-06-26T23:16:39;10.87;;;10.27;;
17449;SDS011;8842;51.244;7.102;2023-06-26T23:21:43;10.83;;;10.23;;
17449;SDS011;8842;51.244;7.102;2023-06-26T23:26:57;10.93;;;10.33;;
17449;SDS011;8842;51.244;7.102;2023-06-26T23:32:01;11.20;;;10.60;;
17449;SDS011;8842;51.244;7.102;2023-06-26T23:37:14;11.00;;;10.40;;
17449;SDS011;8842;51.244;7.102;2023-06-26T23:42:20;10.97;;;10.37;;
17449;SDS011;8842;51.244;7.102;2023-06-26T23:47:31;10.50;;;10.00;;
17449;SDS011;8842;51.244;7.102;2023-06-26T23:52:35;10.60;;;10.07;;
17449;SDS011;8842;51.244;7.102;2023-06-26T23:57:40;11.20;;;10.60;;
